sensor_id;sensor_type;location;lat;lon;timestamp;P1;durP1;ratioP1;P2;durP2;ratioP2
72941;SDS011;69665;55.822;37.330;2023-08-17T00:01:26;11.55;;;5.97;;
72941;SDS011;69665;55.822;37.330;2023-08-17T00:03:51;10.63;;;5.68;;
72941;SDS011;69665;55.822;37.330;2023-08-17T00:06:17;10.82;;;6.30;;
72941;SDS011;69665;55.822;37.330;2023-08-17T00:08:42;10.13;;;5.50;;
72941;SDS011;69665;55.822;37.330;2023-08-17T00:11:08;9.75;;;6.15;;
72941;SDS011;69665;55.822;37.330;2023-08-17T00:13:34;10.50;;;6.32;;
72941;SDS011;69665;55.822;37.330;2023-08-17T00:15:59;12.13;;;6.00;;
72941;SDS011;69665;55.822;37.330;2023-08-17T00:18:25;12.38;;;6.20;;
72941;SDS011;69665;55.822;37.330;2023-08-17T00:20:50;10.40;;;5.72;;
72941;SDS011;69665;55.822;37.330;2023-08-17T00:23:16;9.95;;;5.90;;
72941;SDS011;69665;55.822;37.330;2023-08-17T00:25:42;10.57;;;5.80;;
72941;SDS011;69665;55.822;37.330;2023-08-17T00:28:08;10.43;;;6.00;;
72941;SDS011;69665;55.822;37.330;2023-08-17T00:30:33;9.63;;;5.75;;
72941;SDS011;69665;55.822;37.330;2023-08-17T00:33:01;9.90;;;6.00;;
72941;SDS011;69665;55.822;37.330;2023-08-17T00:35:27;10.15;;;6.07;;
72941;SDS011;69665;55.822;37.330;2023-08-17T00:37:55;12.50;;;7.18;;
72941;SDS011;69665;55.822;37.330;2023-08-17T00:40:20;11.38;;;6.30;;
72941;SDS011;69665;55.822;37.330;2023-08-17T00:42:46;11.57;;;6.78;;
72941;SDS011;69665;55.822;37.330;2023-08-17T00:45:11;10.38;;;6.63;;
72941;SDS011;69665;55.822;37.330;2023-08-17T00:47:37;11.98;;;6.38;;
72941;SDS011;69665;55.822;37.330;2023-08-17T00:50:02;8.77;;;5.68;;
72941;SDS011;69665;55.822;37.330;2023-08-17T00:52:30;11.18;;;6.18;;
72941;SDS011;69665;55.822;37.330;2023-08-17T00:54:57;11.68;;;7.05;;
72941;SDS011;69665;55.822;37.330;2023-08-17T00:57:23;13.18;;;6.30;;
72941;SDS011;69665;55.822;37.330;2023-08-17T00:59:49;11.80;;;6.85;;
72941;SDS011;69665;55.822;37.330;2023-08-17T01:02:15;10.60;;;6.75;;
72941;SDS011;69665;55.822;37.330;2023-08-17T01:04:42;10.80;;;6.68;;
72941;SDS011;69665;55.822;37.330;2023-08-17T01:07:07;13.40;;;6.63;;
72941;SDS011;69665;55.822;37.330;2023-08-17T01:09:33;10.80;;;6.40;;
72941;SDS011;69665;55.822;37.330;2023-08-17T01:12:00;11.15;;;6.18;;
72941;SDS011;69665;55.822;37.330;2023-08-17T01:16:56;9.63;;;6.40;;
72941;SDS011;69665;55.822;37.330;2023-08-17T01:19:26;12.95;;;7.25;;
72941;SDS011;69665;55.822;37.330;2023-08-17T01:21:53;14.10;;;6.35;;
72941;SDS011;69665;55.822;37.330;2023-08-17T01:24:21;10.65;;;6.43;;
72941;SDS011;69665;55.822;37.330;2023-08-17T01:26:49;10.35;;;7.03;;
72941;SDS011;69665;55.822;37.330;2023-08-17T01:29:15;15.18;;;7.25;;
72941;SDS011;69665;55.822;37.330;2023-08-17T01:31:44;11.02;;;7.00;;
72941;SDS011;69665;55.822;37.330;2023-08-17T01:34:14;10.57;;;6.65;;
72941;SDS011;69665;55.822;37.330;2023-08-17T01:36:46;11.80;;;7.05;;
72941;SDS011;69665;55.822;37.330;2023-08-17T01:39:12;12.70;;;7.15;;
72941;SDS011;69665;55.822;37.330;2023-08-17T01:41:38;11.30;;;7.13;;
72941;SDS011;69665;55.822;37.330;2023-08-17T01:44:05;10.32;;;6.75;;
72941;SDS011;69665;55.822;37.330;2023-08-17T01:46:31;13.10;;;6.90;;
72941;SDS011;69665;55.822;37.330;2023-08-17T01:48:59;10.15;;;6.93;;
72941;SDS011;69665;55.822;37.330;2023-08-17T01:51:25;11.10;;;7.03;;
72941;SDS011;69665;55.822;37.330;2023-08-17T01:53:50;10.85;;;6.90;;
72941;SDS011;69665;55.822;37.330;2023-08-17T01:56:16;11.05;;;6.25;;
72941;SDS011;69665;55.822;37.330;2023-08-17T01:58:41;13.38;;;6.85;;
72941;SDS011;69665;55.822;37.330;2023-08-17T02:01:07;13.95;;;6.95;;
72941;SDS011;69665;55.822;37.330;2023-08-17T02:03:32;14.63;;;5.88;;
72941;SDS011;69665;55.822;37.330;2023-08-17T02:06:01;12.82;;;7.05;;
72941;SDS011;69665;55.822;37.330;2023-08-17T02:08:26;13.13;;;6.68;;
72941;SDS011;69665;55.822;37.330;2023-08-17T02:10:52;14.80;;;7.50;;
72941;SDS011;69665;55.822;37.330;2023-08-17T02:13:20;12.45;;;6.97;;
72941;SDS011;69665;55.822;37.330;2023-08-17T02:15:49;11.60;;;6.32;;
72941;SDS011;69665;55.822;37.330;2023-08-17T02:18:15;12.00;;;6.60;;
72941;SDS011;69665;55.822;37.330;2023-08-17T02:20:40;12.27;;;6.53;;
72941;SDS011;69665;55.822;37.330;2023-08-17T02:23:06;11.18;;;6.45;;
72941;SDS011;69665;55.822;37.330;2023-08-17T02:25:31;14.43;;;7.25;;
72941;SDS011;69665;55.822;37.330;2023-08-17T02:28:01;10.50;;;6.70;;
72941;SDS011;69665;55.822;37.330;2023-08-17T02:30:27;11.15;;;6.68;;
72941;SDS011;69665;55.822;37.330;2023-08-17T02:32:53;12.48;;;5.80;;
72941;SDS011;69665;55.822;37.330;2023-08-17T02:35:18;13.57;;;6.85;;
72941;SDS011;69665;55.822;37.330;2023-08-17T02:37:44;11.15;;;6.25;;
72941;SDS011;69665;55.822;37.330;2023-08-17T02:40:09;14.40;;;7.10;;
72941;SDS011;69665;55.822;37.330;2023-08-17T02:42:35;11.57;;;6.47;;
72941;SDS011;69665;55.822;37.330;2023-08-17T02:45:00;11.25;;;6.05;;
72941;SDS011;69665;55.822;37.330;2023-08-17T02:47:26;11.60;;;6.32;;
72941;SDS011;69665;55.822;37.330;2023-08-17T02:49:52;11.88;;;6.40;;
72941;SDS011;69665;55.822;37.330;2023-08-17T02:52:17;11.50;;;6.10;;
72941;SDS011;69665;55.822;37.330;2023-08-17T02:54:43;10.90;;;5.63;;
72941;SDS011;69665;55.822;37.330;2023-08-17T02:57:09;11.05;;;5.75;;
72941;SDS011;69665;55.822;37.330;2023-08-17T02:59:34;11.60;;;5.72;;
72941;SDS011;69665;55.822;37.330;2023-08-17T03:02:00;11.20;;;4.97;;
72941;SDS011;69665;55.822;37.330;2023-08-17T03:04:25;8.75;;;4.85;;
72941;SDS011;69665;55.822;37.330;2023-08-17T03:06:51;8.20;;;5.25;;
72941;SDS011;69665;55.822;37.330;2023-08-17T03:09:17;11.15;;;4.43;;
72941;SDS011;69665;55.822;37.330;2023-08-17T03:11:42;10.23;;;5.18;;
72941;SDS011;69665;55.822;37.330;2023-08-17T03:14:08;10.30;;;4.32;;
72941;SDS011;69665;55.822;37.330;2023-08-17T03:16:33;8.90;;;4.47;;
72941;SDS011;69665;55.822;37.330;2023-08-17T03:18:59;9.85;;;4.93;;
72941;SDS011;69665;55.822;37.330;2023-08-17T03:21:24;11.38;;;5.32;;
72941;SDS011;69665;55.822;37.330;2023-08-17T03:23:50;11.68;;;5.45;;
72941;SDS011;69665;55.822;37.330;2023-08-17T03:26:16;9.27;;;4.60;;
72941;SDS011;69665;55.822;37.330;2023-08-17T03:28:42;10.73;;;4.70;;
72941;SDS011;69665;55.822;37.330;2023-08-17T03:31:07;8.75;;;5.10;;
72941;SDS011;69665;55.822;37.330;2023-08-17T03:36:02;11.50;;;4.82;;
72941;SDS011;69665;55.822;37.330;2023-08-17T03:38:28;10.27;;;5.38;;
72941;SDS011;69665;55.822;37.330;2023-08-17T03:40:54;10.77;;;5.20;;
72941;SDS011;69665;55.822;37.330;2023-08-17T03:43:22;8.65;;;5.63;;
72941;SDS011;69665;55.822;37.330;2023-08-17T03:45:47;11.82;;;4.97;;
72941;SDS011;69665;55.822;37.330;2023-08-17T03:48:13;9.25;;;5.03;;
72941;SDS011;69665;55.822;37.330;2023-08-17T03:50:38;10.68;;;4.70;;
72941;SDS011;69665;55.822;37.330;2023-08-17T03:53:04;9.55;;;5.30;;
72941;SDS011;69665;55.822;37.330;2023-08-17T03:55:29;9.07;;;4.68;;
72941;SDS011;69665;55.822;37.330;2023-08-17T03:57:55;8.07;;;4.90;;
72941;SDS011;69665;55.822;37.330;2023-08-17T04:00:21;10.38;;;5.43;;
72941;SDS011;69665;55.822;37.330;2023-08-17T04:02:52;9.20;;;4.97;;
72941;SDS011;69665;55.822;37.330;2023-08-17T04:05:19;10.02;;;5.28;;
72941;SDS011;69665;55.822;37.330;2023-08-17T04:07:44;10.52;;;5.53;;
72941;SDS011;69665;55.822;37.330;2023-08-17T04:10:10;10.73;;;5.57;;
72941;SDS011;69665;55.822;37.330;2023-08-17T04:12:36;9.38;;;6.25;;
72941;SDS011;69665;55.822;37.330;2023-08-17T04:15:01;9.20;;;5.72;;
72941;SDS011;69665;55.822;37.330;2023-08-17T04:17:29;10.43;;;5.50;;
72941;SDS011;69665;55.822;37.330;2023-08-17T04:19:55;10.32;;;5.30;;
72941;SDS011;69665;55.822;37.330;2023-08-17T04:22:21;14.70;;;5.63;;
72941;SDS011;69665;55.822;37.330;2023-08-17T04:24:47;12.32;;;5.72;;
72941;SDS011;69665;55.822;37.330;2023-08-17T04:27:12;10.05;;;5.63;;
72941;SDS011;69665;55.822;37.330;2023-08-17T04:29:39;12.73;;;6.25;;
72941;SDS011;69665;55.822;37.330;2023-08-17T04:32:05;11.20;;;5.97;;
72941;SDS011;69665;55.822;37.330;2023-08-17T04:34:30;12.95;;;6.50;;
72941;SDS011;69665;55.822;37.330;2023-08-17T04:36:56;11.23;;;6.05;;
72941;SDS011;69665;55.822;37.330;2023-08-17T04:39:21;12.10;;;5.97;;
72941;SDS011;69665;55.822;37.330;2023-08-17T04:41:47;10.35;;;6.15;;
72941;SDS011;69665;55.822;37.330;2023-08-17T04:44:19;9.60;;;6.10;;
72941;SDS011;69665;55.822;37.330;2023-08-17T04:46:44;11.50;;;6.50;;
72941;SDS011;69665;55.822;37.330;2023-08-17T04:49:10;10.43;;;6.70;;
72941;SDS011;69665;55.822;37.330;2023-08-17T04:51:35;12.93;;;7.15;;
72941;SDS011;69665;55.822;37.330;2023-08-17T04:54:01;11.65;;;6.05;;
72941;SDS011;69665;55.822;37.330;2023-08-17T04:56:27;9.70;;;6.15;;
72941;SDS011;69665;55.822;37.330;2023-08-17T04:58:53;9.60;;;6.10;;
72941;SDS011;69665;55.822;37.330;2023-08-17T05:01:22;11.27;;;6.80;;
72941;SDS011;69665;55.822;37.330;2023-08-17T05:03:48;10.63;;;6.10;;
72941;SDS011;69665;55.822;37.330;2023-08-17T05:06:13;12.15;;;5.57;;
72941;SDS011;69665;55.822;37.330;2023-08-17T05:08:39;9.27;;;5.65;;
72941;SDS011;69665;55.822;37.330;2023-08-17T05:11:04;7.13;;;4.88;;
72941;SDS011;69665;55.822;37.330;2023-08-17T05:13:30;8.32;;;4.72;;
72941;SDS011;69665;55.822;37.330;2023-08-17T05:15:59;9.15;;;5.10;;
72941;SDS011;69665;55.822;37.330;2023-08-17T05:18:25;8.20;;;4.55;;
72941;SDS011;69665;55.822;37.330;2023-08-17T05:20:50;6.38;;;3.60;;
72941;SDS011;69665;55.822;37.330;2023-08-17T05:23:15;8.15;;;4.05;;
72941;SDS011;69665;55.822;37.330;2023-08-17T05:25:45;8.27;;;3.75;;
72941;SDS011;69665;55.822;37.330;2023-08-17T05:28:13;9.65;;;4.40;;
72941;SDS011;69665;55.822;37.330;2023-08-17T05:30:39;8.32;;;4.57;;
72941;SDS011;69665;55.822;37.330;2023-08-17T05:33:04;6.63;;;3.95;;
72941;SDS011;69665;55.822;37.330;2023-08-17T05:35:30;7.65;;;3.75;;
72941;SDS011;69665;55.822;37.330;2023-08-17T05:37:57;9.30;;;3.80;;
72941;SDS011;69665;55.822;37.330;2023-08-17T05:40:22;9.18;;;4.65;;
72941;SDS011;69665;55.822;37.330;2023-08-17T05:42:47;7.65;;;4.05;;
72941;SDS011;69665;55.822;37.330;2023-08-17T05:45:13;7.07;;;3.88;;
72941;SDS011;69665;55.822;37.330;2023-08-17T05:47:38;8.93;;;3.83;;
72941;SDS011;69665;55.822;37.330;2023-08-17T05:50:04;10.10;;;4.43;;
72941;SDS011;69665;55.822;37.330;2023-08-17T05:52:31;5.55;;;3.05;;
72941;SDS011;69665;55.822;37.330;2023-08-17T05:54:56;8.65;;;4.00;;
72941;SDS011;69665;55.822;37.330;2023-08-17T05:57:21;6.70;;;3.95;;
72941;SDS011;69665;55.822;37.330;2023-08-17T05:59:47;8.70;;;4.00;;
72941;SDS011;69665;55.822;37.330;2023-08-17T06:02:13;8.48;;;4.85;;
72941;SDS011;69665;55.822;37.330;2023-08-17T06:04:38;9.05;;;4.40;;
72941;SDS011;69665;55.822;37.330;2023-08-17T06:07:03;6.05;;;3.17;;
72941;SDS011;69665;55.822;37.330;2023-08-17T06:09:29;7.85;;;3.50;;
72941;SDS011;69665;55.822;37.330;2023-08-17T06:11:54;6.95;;;3.05;;
72941;SDS011;69665;55.822;37.330;2023-08-17T06:14:20;5.93;;;2.65;;
72941;SDS011;69665;55.822;37.330;2023-08-17T06:16:45;6.35;;;2.80;;
72941;SDS011;69665;55.822;37.330;2023-08-17T06:19:14;5.40;;;2.40;;
72941;SDS011;69665;55.822;37.330;2023-08-17T06:21:39;5.00;;;2.53;;
72941;SDS011;69665;55.822;37.330;2023-08-17T06:24:05;5.43;;;2.42;;
72941;SDS011;69665;55.822;37.330;2023-08-17T06:26:30;4.05;;;2.30;;
72941;SDS011;69665;55.822;37.330;2023-08-17T06:28:56;5.07;;;2.75;;
72941;SDS011;69665;55.822;37.330;2023-08-17T06:31:22;5.28;;;2.28;;
72941;SDS011;69665;55.822;37.330;2023-08-17T06:33:52;4.45;;;2.33;;
72941;SDS011;69665;55.822;37.330;2023-08-17T06:36:18;4.28;;;2.38;;
72941;SDS011;69665;55.822;37.330;2023-08-17T06:38:43;5.13;;;2.40;;
72941;SDS011;69665;55.822;37.330;2023-08-17T06:41:09;5.18;;;2.75;;
72941;SDS011;69665;55.822;37.330;2023-08-17T06:43:35;4.38;;;2.30;;
72941;SDS011;69665;55.822;37.330;2023-08-17T06:46:00;4.72;;;2.55;;
72941;SDS011;69665;55.822;37.330;2023-08-17T06:48:27;3.97;;;1.80;;
72941;SDS011;69665;55.822;37.330;2023-08-17T06:50:53;6.85;;;2.75;;
72941;SDS011;69665;55.822;37.330;2023-08-17T06:53:18;4.25;;;2.20;;
72941;SDS011;69665;55.822;37.330;2023-08-17T06:55:43;4.93;;;2.55;;
72941;SDS011;69665;55.822;37.330;2023-08-17T06:58:09;4.80;;;2.58;;
72941;SDS011;69665;55.822;37.330;2023-08-17T07:00:35;6.07;;;2.58;;
72941;SDS011;69665;55.822;37.330;2023-08-17T07:03:00;4.85;;;3.13;;
72941;SDS011;69665;55.822;37.330;2023-08-17T07:05:26;4.93;;;2.25;;
72941;SDS011;69665;55.822;37.330;2023-08-17T07:07:51;4.25;;;2.30;;
72941;SDS011;69665;55.822;37.330;2023-08-17T07:10:18;6.85;;;2.50;;
72941;SDS011;69665;55.822;37.330;2023-08-17T07:12:44;5.97;;;2.88;;
72941;SDS011;69665;55.822;37.330;2023-08-17T07:15:10;4.40;;;2.22;;
72941;SDS011;69665;55.822;37.330;2023-08-17T07:17:35;4.95;;;2.47;;
72941;SDS011;69665;55.822;37.330;2023-08-17T07:20:03;4.38;;;2.15;;
72941;SDS011;69665;55.822;37.330;2023-08-17T07:22:30;4.43;;;2.45;;
72941;SDS011;69665;55.822;37.330;2023-08-17T07:24:55;4.50;;;2.17;;
72941;SDS011;69665;55.822;37.330;2023-08-17T07:27:21;4.50;;;2.38;;
72941;SDS011;69665;55.822;37.330;2023-08-17T07:29:47;3.47;;;1.85;;
72941;SDS011;69665;55.822;37.330;2023-08-17T07:32:12;4.20;;;2.50;;
72941;SDS011;69665;55.822;37.330;2023-08-17T07:34:38;5.03;;;2.10;;
72941;SDS011;69665;55.822;37.330;2023-08-17T07:37:04;6.60;;;2.95;;
72941;SDS011;69665;55.822;37.330;2023-08-17T07:39:29;3.78;;;2.22;;
72941;SDS011;69665;55.822;37.330;2023-08-17T07:41:55;4.38;;;2.33;;
72941;SDS011;69665;55.822;37.330;2023-08-17T07:44:20;5.07;;;2.42;;
72941;SDS011;69665;55.822;37.330;2023-08-17T07:46:49;4.75;;;2.47;;
72941;SDS011;69665;55.822;37.330;2023-08-17T07:49:14;6.28;;;2.63;;
72941;SDS011;69665;55.822;37.330;2023-08-17T07:51:40;4.00;;;2.30;;
72941;SDS011;69665;55.822;37.330;2023-08-17T07:54:05;4.38;;;2.55;;
72941;SDS011;69665;55.822;37.330;2023-08-17T07:56:30;5.90;;;2.58;;
72941;SDS011;69665;55.822;37.330;2023-08-17T07:58:56;6.72;;;4.40;;
72941;SDS011;69665;55.822;37.330;2023-08-17T08:01:22;3.72;;;2.42;;
72941;SDS011;69665;55.822;37.330;2023-08-17T08:03:47;5.13;;;2.38;;
72941;SDS011;69665;55.822;37.330;2023-08-17T08:06:13;5.28;;;2.03;;
72941;SDS011;69665;55.822;37.330;2023-08-17T08:08:39;4.93;;;2.33;;
72941;SDS011;69665;55.822;37.330;2023-08-17T08:11:04;4.13;;;2.42;;
72941;SDS011;69665;55.822;37.330;2023-08-17T08:13:30;5.35;;;2.30;;
72941;SDS011;69665;55.822;37.330;2023-08-17T08:15:56;4.55;;;2.22;;
72941;SDS011;69665;55.822;37.330;2023-08-17T08:18:22;4.45;;;2.33;;
72941;SDS011;69665;55.822;37.330;2023-08-17T08:20:48;4.03;;;1.90;;
72941;SDS011;69665;55.822;37.330;2023-08-17T08:23:13;6.63;;;2.42;;
72941;SDS011;69665;55.822;37.330;2023-08-17T08:25:39;5.28;;;2.10;;
72941;SDS011;69665;55.822;37.330;2023-08-17T08:28:04;4.28;;;2.45;;
72941;SDS011;69665;55.822;37.330;2023-08-17T08:30:30;4.55;;;2.67;;
72941;SDS011;69665;55.822;37.330;2023-08-17T08:32:55;4.93;;;1.95;;
72941;SDS011;69665;55.822;37.330;2023-08-17T08:35:23;5.50;;;2.50;;
72941;SDS011;69665;55.822;37.330;2023-08-17T08:37:50;6.10;;;2.40;;
72941;SDS011;69665;55.822;37.330;2023-08-17T08:40:15;7.78;;;6.75;;
72941;SDS011;69665;55.822;37.330;2023-08-17T08:42:42;7.50;;;4.22;;
72941;SDS011;69665;55.822;37.330;2023-08-17T08:45:07;5.07;;;2.70;;
72941;SDS011;69665;55.822;37.330;2023-08-17T08:47:33;4.60;;;2.58;;
72941;SDS011;69665;55.822;37.330;2023-08-17T08:50:00;4.75;;;2.53;;
72941;SDS011;69665;55.822;37.330;2023-08-17T08:54:59;5.30;;;2.47;;
72941;SDS011;69665;55.822;37.330;2023-08-17T08:57:28;6.00;;;2.40;;
72941;SDS011;69665;55.822;37.330;2023-08-17T08:59:55;4.72;;;2.38;;
72941;SDS011;69665;55.822;37.330;2023-08-17T09:02:20;6.10;;;2.58;;
72941;SDS011;69665;55.822;37.330;2023-08-17T09:04:49;5.68;;;2.67;;
72941;SDS011;69665;55.822;37.330;2023-08-17T09:07:14;5.03;;;2.38;;
72941;SDS011;69665;55.822;37.330;2023-08-17T09:09:42;5.60;;;3.20;;
72941;SDS011;69665;55.822;37.330;2023-08-17T09:12:08;4.45;;;2.58;;
72941;SDS011;69665;55.822;37.330;2023-08-17T09:14:35;4.90;;;2.60;;
72941;SDS011;69665;55.822;37.330;2023-08-17T09:17:05;4.60;;;2.40;;
72941;SDS011;69665;55.822;37.330;2023-08-17T09:19:31;6.85;;;2.45;;
72941;SDS011;69665;55.822;37.330;2023-08-17T09:21:57;4.55;;;2.30;;
72941;SDS011;69665;55.822;37.330;2023-08-17T09:24:22;5.10;;;2.50;;
72941;SDS011;69665;55.822;37.330;2023-08-17T09:26:49;5.05;;;2.30;;
72941;SDS011;69665;55.822;37.330;2023-08-17T09:29:18;6.10;;;2.45;;
72941;SDS011;69665;55.822;37.330;2023-08-17T09:31:43;6.05;;;2.40;;
72941;SDS011;69665;55.822;37.330;2023-08-17T09:34:09;10.05;;;2.70;;
72941;SDS011;69665;55.822;37.330;2023-08-17T09:36:35;5.43;;;2.78;;
72941;SDS011;69665;55.822;37.330;2023-08-17T09:39:01;6.82;;;2.50;;
72941;SDS011;69665;55.822;37.330;2023-08-17T09:41:27;6.57;;;2.35;;
72941;SDS011;69665;55.822;37.330;2023-08-17T09:43:54;5.65;;;2.30;;
72941;SDS011;69665;55.822;37.330;2023-08-17T09:46:19;5.88;;;2.40;;
72941;SDS011;69665;55.822;37.330;2023-08-17T09:48:45;6.97;;;2.50;;
72941;SDS011;69665;55.822;37.330;2023-08-17T09:51:14;5.68;;;2.58;;
72941;SDS011;69665;55.822;37.330;2023-08-17T09:53:39;4.60;;;2.50;;
72941;SDS011;69665;55.822;37.330;2023-08-17T09:56:05;4.70;;;2.30;;
72941;SDS011;69665;55.822;37.330;2023-08-17T09:58:37;6.78;;;2.92;;
72941;SDS011;69665;55.822;37.330;2023-08-17T10:01:03;6.05;;;2.40;;
72941;SDS011;69665;55.822;37.330;2023-08-17T10:03:29;4.80;;;2.50;;
72941;SDS011;69665;55.822;37.330;2023-08-17T10:05:56;6.38;;;2.30;;
72941;SDS011;69665;55.822;37.330;2023-08-17T10:10:49;5.90;;;2.80;;
72941;SDS011;69665;55.822;37.330;2023-08-17T10:18:17;4.78;;;2.50;;
72941;SDS011;69665;55.822;37.330;2023-08-17T10:20:49;6.05;;;2.83;;
72941;SDS011;69665;55.822;37.330;2023-08-17T10:23:19;5.05;;;2.60;;
72941;SDS011;69665;55.822;37.330;2023-08-17T10:25:47;5.50;;;2.38;;
72941;SDS011;69665;55.822;37.330;2023-08-17T10:28:13;6.18;;;2.83;;
72941;SDS011;69665;55.822;37.330;2023-08-17T10:30:38;5.45;;;2.75;;
72941;SDS011;69665;55.822;37.330;2023-08-17T10:33:05;5.38;;;3.05;;
72941;SDS011;69665;55.822;37.330;2023-08-17T10:35:31;6.32;;;2.78;;
72941;SDS011;69665;55.822;37.330;2023-08-17T10:37:57;8.38;;;2.80;;
72941;SDS011;69665;55.822;37.330;2023-08-17T10:40:26;6.63;;;2.63;;
72941;SDS011;69665;55.822;37.330;2023-08-17T10:42:53;6.45;;;2.88;;
72941;SDS011;69665;55.822;37.330;2023-08-17T10:47:56;6.18;;;2.42;;
72941;SDS011;69665;55.822;37.330;2023-08-17T10:50:24;6.63;;;2.92;;
72941;SDS011;69665;55.822;37.330;2023-08-17T10:52:51;5.63;;;2.60;;
72941;SDS011;69665;55.822;37.330;2023-08-17T10:55:20;6.50;;;2.55;;
72941;SDS011;69665;55.822;37.330;2023-08-17T10:57:59;5.45;;;2.67;;
72941;SDS011;69665;55.822;37.330;2023-08-17T11:00:25;7.40;;;2.55;;
72941;SDS011;69665;55.822;37.330;2023-08-17T11:03:01;4.97;;;2.53;;
72941;SDS011;69665;55.822;37.330;2023-08-17T11:08:03;5.47;;;2.80;;
72941;SDS011;69665;55.822;37.330;2023-08-17T11:10:28;4.45;;;2.50;;
72941;SDS011;69665;55.822;37.330;2023-08-17T11:12:55;6.25;;;2.42;;
72941;SDS011;69665;55.822;37.330;2023-08-17T11:15:41;6.63;;;2.60;;
72941;SDS011;69665;55.822;37.330;2023-08-17T11:18:11;6.07;;;2.60;;
72941;SDS011;69665;55.822;37.330;2023-08-17T11:20:38;5.57;;;2.38;;
72941;SDS011;69665;55.822;37.330;2023-08-17T11:23:05;4.38;;;1.85;;
72941;SDS011;69665;55.822;37.330;2023-08-17T11:25:31;5.90;;;2.70;;
72941;SDS011;69665;55.822;37.330;2023-08-17T11:27:56;6.45;;;2.60;;
72941;SDS011;69665;55.822;37.330;2023-08-17T11:30:22;4.00;;;2.10;;
72941;SDS011;69665;55.822;37.330;2023-08-17T11:32:49;4.72;;;2.20;;
72941;SDS011;69665;55.822;37.330;2023-08-17T11:35:15;5.00;;;2.75;;
72941;SDS011;69665;55.822;37.330;2023-08-17T11:37:40;5.25;;;2.45;;
72941;SDS011;69665;55.822;37.330;2023-08-17T11:40:06;4.78;;;2.10;;
72941;SDS011;69665;55.822;37.330;2023-08-17T11:42:33;6.10;;;2.72;;
72941;SDS011;69665;55.822;37.330;2023-08-17T11:44:59;4.88;;;2.38;;
72941;SDS011;69665;55.822;37.330;2023-08-17T11:47:24;5.32;;;2.45;;
72941;SDS011;69665;55.822;37.330;2023-08-17T11:49:50;7.85;;;2.58;;
72941;SDS011;69665;55.822;37.330;2023-08-17T11:52:15;5.78;;;2.58;;
72941;SDS011;69665;55.822;37.330;2023-08-17T11:54:41;4.22;;;2.40;;
72941;SDS011;69665;55.822;37.330;2023-08-17T11:57:07;5.47;;;2.60;;
72941;SDS011;69665;55.822;37.330;2023-08-17T11:59:32;5.13;;;2.38;;
72941;SDS011;69665;55.822;37.330;2023-08-17T12:01:59;7.60;;;2.78;;
72941;SDS011;69665;55.822;37.330;2023-08-17T12:04:26;5.00;;;2.60;;
72941;SDS011;69665;55.822;37.330;2023-08-17T12:06:51;5.85;;;2.42;;
72941;SDS011;69665;55.822;37.330;2023-08-17T12:09:17;4.93;;;2.67;;
72941;SDS011;69665;55.822;37.330;2023-08-17T12:11:44;5.85;;;2.63;;
72941;SDS011;69665;55.822;37.330;2023-08-17T12:14:10;7.07;;;2.63;;
72941;SDS011;69665;55.822;37.330;2023-08-17T12:16:46;4.82;;;2.30;;
72941;SDS011;69665;55.822;37.330;2023-08-17T12:19:12;4.97;;;2.30;;
72941;SDS011;69665;55.822;37.330;2023-08-17T12:21:40;6.65;;;2.72;;
72941;SDS011;69665;55.822;37.330;2023-08-17T12:24:05;4.32;;;2.20;;
72941;SDS011;69665;55.822;37.330;2023-08-17T12:26:31;4.45;;;2.00;;
72941;SDS011;69665;55.822;37.330;2023-08-17T12:28:58;5.63;;;2.42;;
72941;SDS011;69665;55.822;37.330;2023-08-17T12:31:23;5.15;;;2.30;;
72941;SDS011;69665;55.822;37.330;2023-08-17T12:33:49;4.95;;;2.30;;
72941;SDS011;69665;55.822;37.330;2023-08-17T12:36:15;5.60;;;1.88;;
72941;SDS011;69665;55.822;37.330;2023-08-17T12:38:40;4.70;;;2.42;;
72941;SDS011;69665;55.822;37.330;2023-08-17T12:41:10;5.65;;;2.70;;
72941;SDS011;69665;55.822;37.330;2023-08-17T12:43:37;6.00;;;2.65;;
72941;SDS011;69665;55.822;37.330;2023-08-17T12:46:02;6.50;;;2.85;;
72941;SDS011;69665;55.822;37.330;2023-08-17T12:48:28;5.53;;;3.00;;
72941;SDS011;69665;55.822;37.330;2023-08-17T12:50:53;5.43;;;2.53;;
72941;SDS011;69665;55.822;37.330;2023-08-17T12:53:19;6.97;;;3.13;;
72941;SDS011;69665;55.822;37.330;2023-08-17T12:55:44;7.25;;;2.97;;
72941;SDS011;69665;55.822;37.330;2023-08-17T12:58:10;7.25;;;3.00;;
72941;SDS011;69665;55.822;37.330;2023-08-17T13:00:36;7.38;;;2.45;;
72941;SDS011;69665;55.822;37.330;2023-08-17T13:03:02;7.35;;;3.05;;
72941;SDS011;69665;55.822;37.330;2023-08-17T13:05:27;6.13;;;2.60;;
72941;SDS011;69665;55.822;37.330;2023-08-17T13:07:53;6.78;;;2.80;;
72941;SDS011;69665;55.822;37.330;2023-08-17T13:10:18;4.60;;;2.75;;
72941;SDS011;69665;55.822;37.330;2023-08-17T13:12:45;6.80;;;2.85;;
72941;SDS011;69665;55.822;37.330;2023-08-17T13:15:12;6.28;;;2.47;;
72941;SDS011;69665;55.822;37.330;2023-08-17T13:17:38;6.55;;;2.85;;
72941;SDS011;69665;55.822;37.330;2023-08-17T13:20:04;5.93;;;2.63;;
72941;SDS011;69665;55.822;37.330;2023-08-17T13:22:30;7.80;;;3.00;;
72941;SDS011;69665;55.822;37.330;2023-08-17T13:24:56;4.70;;;2.55;;
72941;SDS011;69665;55.822;37.330;2023-08-17T13:27:21;5.95;;;2.72;;
72941;SDS011;69665;55.822;37.330;2023-08-17T13:29:47;9.35;;;4.20;;
72941;SDS011;69665;55.822;37.330;2023-08-17T13:32:13;5.60;;;2.80;;
72941;SDS011;69665;55.822;37.330;2023-08-17T13:34:38;5.72;;;2.80;;
72941;SDS011;69665;55.822;37.330;2023-08-17T13:37:04;5.03;;;2.60;;
72941;SDS011;69665;55.822;37.330;2023-08-17T13:39:29;8.25;;;2.88;;
72941;SDS011;69665;55.822;37.330;2023-08-17T13:41:55;6.22;;;2.70;;
72941;SDS011;69665;55.822;37.330;2023-08-17T13:44:20;6.75;;;2.97;;
72941;SDS011;69665;55.822;37.330;2023-08-17T13:46:46;6.68;;;2.95;;
72941;SDS011;69665;55.822;37.330;2023-08-17T13:49:11;6.47;;;2.60;;
72941;SDS011;69665;55.822;37.330;2023-08-17T13:51:37;6.18;;;3.00;;
72941;SDS011;69665;55.822;37.330;2023-08-17T13:54:02;5.38;;;2.92;;
72941;SDS011;69665;55.822;37.330;2023-08-17T13:56:28;4.35;;;2.65;;
72941;SDS011;69665;55.822;37.330;2023-08-17T13:58:54;4.95;;;2.55;;
72941;SDS011;69665;55.822;37.330;2023-08-17T14:01:19;5.72;;;2.22;;
72941;SDS011;69665;55.822;37.330;2023-08-17T14:03:45;4.50;;;2.72;;
72941;SDS011;69665;55.822;37.330;2023-08-17T14:06:10;6.75;;;3.03;;
72941;SDS011;69665;55.822;37.330;2023-08-17T14:08:36;6.45;;;3.10;;
72941;SDS011;69665;55.822;37.330;2023-08-17T14:11:01;5.35;;;2.85;;
72941;SDS011;69665;55.822;37.330;2023-08-17T14:13:27;5.93;;;2.75;;
72941;SDS011;69665;55.822;37.330;2023-08-17T14:15:53;6.55;;;2.40;;
72941;SDS011;69665;55.822;37.330;2023-08-17T14:18:21;5.47;;;2.60;;
72941;SDS011;69665;55.822;37.330;2023-08-17T14:20:50;4.95;;;2.70;;
72941;SDS011;69665;55.822;37.330;2023-08-17T14:23:15;4.70;;;2.42;;
72941;SDS011;69665;55.822;37.330;2023-08-17T14:25:41;4.70;;;2.50;;
72941;SDS011;69665;55.822;37.330;2023-08-17T14:28:06;7.35;;;2.78;;
72941;SDS011;69665;55.822;37.330;2023-08-17T14:30:33;7.75;;;2.92;;
72941;SDS011;69665;55.822;37.330;2023-08-17T14:32:58;4.97;;;2.60;;
72941;SDS011;69665;55.822;37.330;2023-08-17T14:35:24;5.75;;;3.00;;
72941;SDS011;69665;55.822;37.330;2023-08-17T14:37:49;4.75;;;2.72;;
72941;SDS011;69665;55.822;37.330;2023-08-17T14:40:15;9.50;;;4.63;;
72941;SDS011;69665;55.822;37.330;2023-08-17T14:42:42;13.10;;;7.40;;
72941;SDS011;69665;55.822;37.330;2023-08-17T14:45:08;6.80;;;2.80;;